Bearskin Lake, Canada
Current Conditions -  °F | °C
As of 9:46 AM on Friday 19 Dec 2014 (Local Time) from CYTL Reporting Station
Light Snow Light Snow  
Wind Chill: -12°   Ceiling: Unl
Heat Index:   Visibility: 9mi
Dew Point: -4°   Wind: 6mph
Humidity: 85%   Direction: 190°S
Pressure: 30.17"   Gusts: NA
Location:  53.93°N, 90.98°W
Report Text: CYTL 191546Z AUTO 19005KT 9SM -SN CLR M18/M20 A3017 RMK SLP245
Loading
Personal Weather Stations






























Interactive Weather Map New forecast layout! Learn more

10-Day Weather Forecast

Advertisements
Track Severe Weather on mobile